createdAt,value
2018-07-17T00:00:36.744Z,73.20
2018-07-17T00:03:05.547Z,72.37
2018-07-17T00:05:34.205Z,72.85
2018-07-17T00:08:02.965Z,73.23
2018-07-17T00:10:31.733Z,73.30
2018-07-17T00:13:00.369Z,73.99
2018-07-17T00:15:29.068Z,73.19
2018-07-17T00:17:57.706Z,73.16
2018-07-17T00:20:26.422Z,72.03
2018-07-17T00:22:55.216Z,71.48
2018-07-17T00:25:23.878Z,71.15
2018-07-17T00:27:52.562Z,71.10
2018-07-17T00:30:21.275Z,70.45
2018-07-17T00:32:49.960Z,70.28
2018-07-17T00:35:18.665Z,70.94
2018-07-17T00:37:47.566Z,71.71
2018-07-17T00:40:16.836Z,71.66
2018-07-17T00:42:46.593Z,72.72
2018-07-17T00:45:15.232Z,73.02
2018-07-17T00:47:43.907Z,73.32
2018-07-17T00:50:12.917Z,72.81
2018-07-17T00:52:41.638Z,72.71
2018-07-17T00:55:10.383Z,73.29
2018-07-17T00:57:39.043Z,72.64
2018-07-17T01:00:07.756Z,72.48
2018-07-17T01:02:41.561Z,72.50
2018-07-17T01:05:15.471Z,72.68
2018-07-17T01:07:49.359Z,72.32
2018-07-17T01:10:23.161Z,71.52
2018-07-17T01:12:50.887Z,70.99
2018-07-17T01:15:30.083Z,70.74
2018-07-17T01:17:58.805Z,70.69
2018-07-17T01:20:27.499Z,71.20
2018-07-17T01:22:56.183Z,71.06
2018-07-17T01:25:24.892Z,71.99
2018-07-17T01:27:53.552Z,70.77
2018-07-17T01:30:22.250Z,71.38
2018-07-17T01:32:50.890Z,71.96
2018-07-17T01:35:19.548Z,70.91
2018-07-17T01:37:48.176Z,70.53
2018-07-17T01:40:16.811Z,70.70
2018-07-17T01:42:45.463Z,69.99
2018-07-17T01:45:14.106Z,71.24
2018-07-17T01:47:42.883Z,70.74
2018-07-17T01:50:11.498Z,70.25
2018-07-17T01:52:40.171Z,71.41
2018-07-17T01:55:08.831Z,70.59
2018-07-17T01:57:37.518Z,71.37
2018-07-17T02:00:07.231Z,71.87
2018-07-17T02:02:35.859Z,72.42
2018-07-17T02:05:04.578Z,71.87
2018-07-17T02:07:33.227Z,71.20
2018-07-17T02:10:01.883Z,72.17
2018-07-17T02:12:30.515Z,73.08
2018-07-17T02:14:59.127Z,73.18
2018-07-17T02:17:27.752Z,71.42
2018-07-17T02:19:56.431Z,72.37
2018-07-17T02:22:25.078Z,71.43
2018-07-17T02:24:53.762Z,71.82
2018-07-17T02:27:22.459Z,72.31
2018-07-17T02:29:51.119Z,72.32
2018-07-17T02:32:19.804Z,72.41
2018-07-17T02:34:48.474Z,72.29
2018-07-17T02:37:17.210Z,72.78
2018-07-17T02:39:45.927Z,72.95
2018-07-17T02:42:14.636Z,72.82
2018-07-17T02:44:43.325Z,72.40
2018-07-17T02:47:11.988Z,73.39
2018-07-17T02:49:40.627Z,73.65
2018-07-17T02:52:09.270Z,73.93
2018-07-17T02:54:37.906Z,73.96
2018-07-17T02:57:06.637Z,74.07
2018-07-17T02:59:35.305Z,74.08
2018-07-17T03:02:03.965Z,74.63
2018-07-17T03:04:32.631Z,73.89
2018-07-17T03:07:01.356Z,75.48
2018-07-17T03:09:30.031Z,75.36
2018-07-17T03:11:58.699Z,75.68
2018-07-17T03:14:27.395Z,75.50
2018-07-17T03:16:56.052Z,74.87
2018-07-17T03:19:24.684Z,76.08
2018-07-17T03:21:53.380Z,75.64
2018-07-17T03:24:22.086Z,76.01
2018-07-17T03:26:50.756Z,76.54
2018-07-17T03:29:19.406Z,76.25
2018-07-17T03:31:48.047Z,76.61
2018-07-17T03:34:16.731Z,75.86
2018-07-17T03:36:45.404Z,76.25
2018-07-17T03:39:14.040Z,76.29
2018-07-17T03:41:42.671Z,76.42
2018-07-17T03:44:11.278Z,77.00
2018-07-17T03:46:39.943Z,77.09
2018-07-17T03:49:08.597Z,76.66
2018-07-17T03:51:37.291Z,77.17
2018-07-17T03:54:05.983Z,77.61
2018-07-17T03:56:34.652Z,77.06
2018-07-17T03:59:03.341Z,77.87
2018-07-17T04:01:32.051Z,77.59
2018-07-17T04:04:00.711Z,77.51
2018-07-17T04:06:29.426Z,77.58
2018-07-17T04:08:58.074Z,76.99
2018-07-17T04:11:26.715Z,77.04
2018-07-17T04:13:55.352Z,77.49
2018-07-17T04:16:24.082Z,76.89
2018-07-17T04:18:52.755Z,76.18
2018-07-17T04:21:21.415Z,75.29
2018-07-17T04:23:50.064Z,76.08
2018-07-17T04:26:18.707Z,75.31
2018-07-17T04:28:47.581Z,75.14
2018-07-17T04:31:16.291Z,75.42
2018-07-17T04:33:44.950Z,74.99
2018-07-17T04:36:13.633Z,74.87
2018-07-17T04:38:42.326Z,73.90
2018-07-17T04:41:10.974Z,74.75
2018-07-17T04:43:39.640Z,73.97
2018-07-17T04:46:08.704Z,73.52
2018-07-17T04:48:37.367Z,74.13
2018-07-17T04:51:06.046Z,73.80
2018-07-17T04:53:34.887Z,73.68
2018-07-17T04:56:03.555Z,73.64
2018-07-17T04:58:32.240Z,72.92
2018-07-17T05:01:00.902Z,72.39
2018-07-17T05:03:29.802Z,72.26
2018-07-17T05:05:58.456Z,71.87
2018-07-17T05:08:27.171Z,71.37
2018-07-17T05:10:55.847Z,70.28
2018-07-17T05:13:24.493Z,68.40
2018-07-17T05:15:53.117Z,67.19
2018-07-17T05:18:21.812Z,66.89
2018-07-17T05:20:50.610Z,65.00
2018-07-17T05:23:19.268Z,63.77
2018-07-17T05:25:48.059Z,62.24
2018-07-17T05:28:16.723Z,61.01
2018-07-17T05:30:45.407Z,62.01
2018-07-17T05:33:14.061Z,60.00
2018-07-17T05:35:42.727Z,59.84
2018-07-17T05:38:11.410Z,59.23
2018-07-17T05:40:40.095Z,57.47
2018-07-17T05:43:08.815Z,56.38
2018-07-17T05:45:37.561Z,55.12
2018-07-17T05:48:06.272Z,54.66
2018-07-17T05:50:34.940Z,53.33
2018-07-17T05:53:03.599Z,54.45
2018-07-17T05:55:32.264Z,52.82
2018-07-17T05:58:00.880Z,51.72
2018-07-17T06:00:30.008Z,52.62
2018-07-17T06:02:58.659Z,52.30
2018-07-17T06:05:27.344Z,50.48
2018-07-17T06:07:56.005Z,49.82
2018-07-17T06:10:24.717Z,50.53
2018-07-17T06:12:53.415Z,49.35
2018-07-17T06:15:22.051Z,48.95
2018-07-17T06:17:50.723Z,48.49
2018-07-17T06:20:19.371Z,46.67
2018-07-17T06:22:48.007Z,44.59
2018-07-17T06:25:16.679Z,45.07
2018-07-17T06:27:45.414Z,45.13
2018-07-17T06:30:14.088Z,46.80
2018-07-17T06:32:42.711Z,47.84
2018-07-17T06:35:11.370Z,50.22
2018-07-17T06:37:40.042Z,51.78
2018-07-17T06:40:08.746Z,51.91
2018-07-17T06:42:37.356Z,52.43
2018-07-17T06:45:06.095Z,52.62
2018-07-17T06:47:34.809Z,52.36
2018-07-17T06:50:03.532Z,54.11
2018-07-17T06:52:32.186Z,54.67
2018-07-17T06:55:00.822Z,55.38
2018-07-17T06:57:29.591Z,56.20
2018-07-17T06:59:58.210Z,56.59
2018-07-17T07:02:26.839Z,56.73
2018-07-17T07:04:55.624Z,56.66
2018-07-17T07:07:24.300Z,56.95
2018-07-17T07:09:53.540Z,57.29
2018-07-17T07:12:22.301Z,56.41
2018-07-17T07:14:51.001Z,56.90
2018-07-17T07:17:19.674Z,57.55
2018-07-17T07:19:48.342Z,56.39
2018-07-17T07:22:17.143Z,57.11
2018-07-17T07:24:45.871Z,56.99
2018-07-17T07:27:14.537Z,57.32
2018-07-17T07:29:43.199Z,57.56
2018-07-17T07:32:11.968Z,58.02
2018-07-17T07:34:40.583Z,57.81
2018-07-17T07:37:09.358Z,57.95
2018-07-17T07:39:37.994Z,58.60
2018-07-17T07:42:06.735Z,58.88
2018-07-17T07:44:35.423Z,59.55
2018-07-17T07:47:04.102Z,60.97
2018-07-17T07:49:32.894Z,61.83
2018-07-17T07:52:01.527Z,62.43
2018-07-17T07:54:30.177Z,64.66
2018-07-17T07:56:58.838Z,70.09
2018-07-17T07:59:27.486Z,75.43
2018-07-17T08:01:56.182Z,82.61
2018-07-17T08:04:24.850Z,90.24
2018-07-17T08:06:53.545Z,95.49
2018-07-17T08:09:22.207Z,99.61
2018-07-17T08:11:51.987Z,100.00
2018-07-17T08:14:20.682Z,100.00
2018-07-17T08:16:49.414Z,100.00
2018-07-17T08:19:18.108Z,100.00
2018-07-17T08:21:46.804Z,100.00
2018-07-17T08:24:15.479Z,100.00
2018-07-17T08:26:44.170Z,100.00
2018-07-17T08:29:12.903Z,100.00
2018-07-17T08:31:41.560Z,100.00
2018-07-17T08:34:10.224Z,100.00
2018-07-17T08:36:38.950Z,100.00
2018-07-17T08:39:08.871Z,100.00
2018-07-17T08:41:37.635Z,100.00
2018-07-17T08:44:06.348Z,100.00
2018-07-17T08:46:35.134Z,100.00
2018-07-17T08:49:03.891Z,100.00
2018-07-17T08:51:32.494Z,100.00
2018-07-17T08:54:01.248Z,100.00
2018-07-17T08:56:30.267Z,100.00
2018-07-17T08:58:59.011Z,100.00
2018-07-17T09:01:27.761Z,100.00
2018-07-17T09:03:56.567Z,100.00
2018-07-17T09:06:25.210Z,100.00
2018-07-17T09:08:53.866Z,100.00
2018-07-17T09:11:22.538Z,100.00
2018-07-17T09:13:51.193Z,100.00
2018-07-17T09:16:19.879Z,100.00
2018-07-17T09:18:48.528Z,100.00
2018-07-17T09:21:17.199Z,100.00
2018-07-17T09:23:45.836Z,100.00
2018-07-17T09:26:15.320Z,100.00
2018-07-17T09:28:44.530Z,100.00
2018-07-17T09:31:13.323Z,100.00
2018-07-17T09:33:42.002Z,100.00
2018-07-17T09:36:10.708Z,100.00
2018-07-17T09:38:39.408Z,100.00
2018-07-17T09:41:08.072Z,100.00
2018-07-17T09:43:36.726Z,99.31
2018-07-17T09:46:05.419Z,98.40
2018-07-17T09:48:34.094Z,98.19
2018-07-17T09:51:02.800Z,96.84
2018-07-17T09:53:31.456Z,93.28
2018-07-17T09:56:00.185Z,93.29
2018-07-17T09:58:28.824Z,93.33
2018-07-17T10:01:02.683Z,92.09
2018-07-17T10:03:31.356Z,91.29
2018-07-17T10:06:00.026Z,92.43
2018-07-17T10:08:28.652Z,94.12
2018-07-17T10:10:57.398Z,95.25
2018-07-17T10:13:26.112Z,93.51
2018-07-17T10:15:54.816Z,92.61
2018-07-17T10:18:23.688Z,92.09
2018-07-17T10:20:52.418Z,88.63
2018-07-17T10:23:21.171Z,90.97
2018-07-17T10:25:49.837Z,85.99
2018-07-17T10:28:18.464Z,88.51
2018-07-17T10:30:47.122Z,86.92
2018-07-17T10:33:15.775Z,87.21
2018-07-17T10:35:44.422Z,82.37
2018-07-17T10:38:13.104Z,81.62
2018-07-17T10:40:41.972Z,77.67
2018-07-17T10:43:11.104Z,80.32
2018-07-17T10:45:39.910Z,80.12
2018-07-17T10:48:08.798Z,73.62
2018-07-17T10:50:37.478Z,73.26
2018-07-17T10:53:07.119Z,72.47
2018-07-17T10:55:35.890Z,68.98
2018-07-17T10:58:04.591Z,71.19
2018-07-17T11:00:33.301Z,69.62
2018-07-17T11:03:02.191Z,69.44
2018-07-17T11:05:30.851Z,69.48
2018-07-17T11:07:59.742Z,68.20
2018-07-17T11:10:29.535Z,69.10
2018-07-17T11:12:58.354Z,66.70
2018-07-17T11:15:27.711Z,65.70
2018-07-17T11:17:56.354Z,59.91
2018-07-17T11:20:24.993Z,58.48
2018-07-17T11:22:53.658Z,57.89
2018-07-17T11:25:22.290Z,57.88
2018-07-17T11:27:50.978Z,59.35
2018-07-17T11:30:19.693Z,58.21
2018-07-17T11:32:48.377Z,57.44
2018-07-17T11:35:17.015Z,58.37
2018-07-17T11:37:45.966Z,57.33
2018-07-17T11:40:14.663Z,59.13
2018-07-17T11:42:43.350Z,59.48
2018-07-17T11:45:12.134Z,58.53
2018-07-17T11:47:40.868Z,56.10
2018-07-17T11:50:09.583Z,54.22
2018-07-17T11:52:38.263Z,51.92
2018-07-17T11:55:06.993Z,51.54
2018-07-17T11:57:36.037Z,51.98
2018-07-17T12:00:05.861Z,51.76
2018-07-17T12:02:34.577Z,51.95
2018-07-17T12:05:03.256Z,50.87
2018-07-17T12:07:32.022Z,53.68
2018-07-17T12:10:00.673Z,55.00
2018-07-17T12:12:29.352Z,54.63
2018-07-17T12:14:57.985Z,54.91
2018-07-17T12:17:26.658Z,55.06
2018-07-17T12:19:55.455Z,58.41
2018-07-17T12:22:24.001Z,61.61
2018-07-17T12:24:52.777Z,63.90
2018-07-17T12:27:21.439Z,65.03
2018-07-17T12:29:50.197Z,65.09
2018-07-17T12:32:18.906Z,65.10
2018-07-17T12:34:47.650Z,65.40
2018-07-17T12:37:16.375Z,65.02
2018-07-17T12:39:45.091Z,64.77
2018-07-17T12:42:13.771Z,66.72
2018-07-17T12:44:42.485Z,65.84
2018-07-17T12:47:11.515Z,65.54
2018-07-17T12:49:40.179Z,66.67
2018-07-17T12:52:08.903Z,70.96
2018-07-17T12:54:37.576Z,72.26
2018-07-17T12:57:06.391Z,76.15
2018-07-17T12:59:35.149Z,82.55
2018-07-17T13:02:03.794Z,87.56
2018-07-17T13:04:32.778Z,91.52
2018-07-17T13:07:01.791Z,91.86
2018-07-17T13:09:30.505Z,91.70
2018-07-17T13:11:59.365Z,89.15
2018-07-17T13:14:28.019Z,90.42
2018-07-17T13:16:56.774Z,85.49
2018-07-17T13:19:25.430Z,84.42
2018-07-17T13:21:54.118Z,83.34
2018-07-17T13:24:22.802Z,83.90
2018-07-17T13:26:51.503Z,84.83
2018-07-17T13:29:20.199Z,80.11
2018-07-17T13:31:49.197Z,77.88
2018-07-17T13:34:17.853Z,75.07
2018-07-17T13:36:46.499Z,69.20
2018-07-17T13:39:15.220Z,68.09
2018-07-17T13:41:43.851Z,67.53
2018-07-17T13:44:12.686Z,66.06
2018-07-17T13:46:41.389Z,70.43
2018-07-17T13:49:10.039Z,72.05
2018-07-17T13:51:38.692Z,72.67
2018-07-17T13:54:07.509Z,74.12
2018-07-17T13:56:36.118Z,75.51
2018-07-17T13:59:04.764Z,72.47
2018-07-17T14:01:33.395Z,71.68
2018-07-17T14:04:02.104Z,70.72
2018-07-17T14:06:30.818Z,70.48
2018-07-17T14:08:59.503Z,68.19
2018-07-17T14:11:28.185Z,67.39
2018-07-17T14:13:56.892Z,66.71
2018-07-17T14:16:25.539Z,66.22
2018-07-17T14:18:54.232Z,66.50
2018-07-17T14:21:22.922Z,67.64
2018-07-17T14:23:51.566Z,65.29
2018-07-17T14:26:20.906Z,65.43
2018-07-17T14:28:49.621Z,65.37
2018-07-17T14:31:18.270Z,63.54
2018-07-17T14:33:46.970Z,63.08
2018-07-17T14:36:15.610Z,63.31
2018-07-17T14:38:44.337Z,63.49
2018-07-17T14:41:12.985Z,63.57
2018-07-17T14:43:41.633Z,62.17
2018-07-17T14:46:10.280Z,60.74
2018-07-17T14:48:39.713Z,59.20
2018-07-17T14:51:11.074Z,59.65
2018-07-17T14:53:39.823Z,58.42
2018-07-17T14:56:08.941Z,57.15
2018-07-17T14:58:37.608Z,55.78
2018-07-17T15:01:06.955Z,56.90
2018-07-17T15:03:36.085Z,56.06
2018-07-17T15:06:04.996Z,57.14
2018-07-17T15:08:33.621Z,57.84
2018-07-17T15:11:02.279Z,58.86
2018-07-17T15:13:31.209Z,59.61
2018-07-17T15:15:59.908Z,60.06
2018-07-17T15:18:28.537Z,59.99
2018-07-17T15:20:57.188Z,60.05
2018-07-17T15:23:25.848Z,59.54
2018-07-17T15:25:54.587Z,59.64
2018-07-17T15:28:23.393Z,59.64
2018-07-17T15:30:52.119Z,60.20
2018-07-17T15:33:20.928Z,59.43
2018-07-17T15:35:49.964Z,59.85
2018-07-17T15:38:18.827Z,60.58
2018-07-17T15:40:47.640Z,61.56
2018-07-17T15:43:16.424Z,61.04
2018-07-17T15:45:45.173Z,60.88
2018-07-17T15:48:13.878Z,62.22
2018-07-17T15:50:42.605Z,61.33
2018-07-17T15:53:11.407Z,61.85
2018-07-17T15:55:40.401Z,60.59
2018-07-17T15:58:09.368Z,61.98
2018-07-17T16:00:38.579Z,61.08
2018-07-17T16:03:07.305Z,62.02
2018-07-17T16:05:36.329Z,60.39
2018-07-17T16:08:05.147Z,61.06
2018-07-17T16:10:33.928Z,61.05
2018-07-17T16:13:02.706Z,60.93
2018-07-17T16:15:31.448Z,62.23
2018-07-17T16:18:00.807Z,62.12
2018-07-17T16:20:30.161Z,62.30
2018-07-17T16:22:59.395Z,62.16
2018-07-17T16:25:28.106Z,61.74
2018-07-17T16:27:57.745Z,62.09
2018-07-17T16:30:27.124Z,62.22
2018-07-17T16:32:55.814Z,63.37
2018-07-17T16:35:24.501Z,63.24
2018-07-17T16:37:53.266Z,63.48
2018-07-17T16:40:22.110Z,62.91
2018-07-17T16:42:50.783Z,63.44
2018-07-17T16:45:19.556Z,63.83
2018-07-17T16:47:48.203Z,63.83
2018-07-17T16:50:16.991Z,63.30
2018-07-17T16:52:45.658Z,63.29
2018-07-17T16:55:14.336Z,63.67
2018-07-17T16:57:42.974Z,63.61
2018-07-17T17:00:11.732Z,63.57
2018-07-17T17:02:41.220Z,63.78
2018-07-17T17:05:09.942Z,64.10
2018-07-17T17:07:38.614Z,64.14
2018-07-17T17:10:07.270Z,65.78
2018-07-17T17:12:35.984Z,65.74
2018-07-17T17:15:05.199Z,65.16
2018-07-17T17:17:34.067Z,65.73
2018-07-17T17:20:02.816Z,66.35
2018-07-17T17:22:31.480Z,65.88
2018-07-17T17:25:00.147Z,66.57
2018-07-17T17:27:28.838Z,66.33
2018-07-17T17:29:57.672Z,66.61
2018-07-17T17:32:26.313Z,66.20
2018-07-17T17:34:54.998Z,66.58
2018-07-17T17:37:23.719Z,66.94
2018-07-17T17:39:52.808Z,67.54
2018-07-17T17:42:21.497Z,66.68
2018-07-17T17:44:50.226Z,67.43
2018-07-17T17:47:19.262Z,68.23
2018-07-17T17:49:47.911Z,68.29
2018-07-17T17:52:16.561Z,67.97
2018-07-17T17:54:45.310Z,68.74
2018-07-17T17:57:13.974Z,68.76
2018-07-17T17:59:42.656Z,69.51
2018-07-17T18:02:11.309Z,69.15
2018-07-17T18:04:40.007Z,70.00
2018-07-17T18:07:08.690Z,69.70
2018-07-17T18:09:37.379Z,69.75
2018-07-17T18:12:06.224Z,69.80
2018-07-17T18:14:34.781Z,70.77
2018-07-17T18:17:03.441Z,70.24
2018-07-17T18:19:32.863Z,70.28
2018-07-17T18:22:01.566Z,70.84
2018-07-17T18:24:31.131Z,71.89
2018-07-17T18:26:59.938Z,71.24
2018-07-17T18:29:28.565Z,71.43
2018-07-17T18:31:57.219Z,71.61
2018-07-17T18:34:25.909Z,71.10
2018-07-17T18:36:54.894Z,70.73
2018-07-17T18:39:24.410Z,71.23
2018-07-17T18:41:53.155Z,72.11
2018-07-17T18:44:21.793Z,71.63
2018-07-17T18:49:33.612Z,70.37
2018-07-17T18:52:02.273Z,69.79
2018-07-17T18:54:30.935Z,69.73
2018-07-17T18:56:59.726Z,67.92
2018-07-17T18:59:28.435Z,67.12
2018-07-17T19:01:57.235Z,68.03
2018-07-17T19:04:26.041Z,67.55
2018-07-17T19:06:54.686Z,67.98
2018-07-17T19:09:23.439Z,67.96
2018-07-17T19:11:52.205Z,68.61
2018-07-17T19:14:21.156Z,68.33
2018-07-17T19:16:49.854Z,69.25
2018-07-17T19:19:18.458Z,69.39
2018-07-17T19:21:47.127Z,69.91
2018-07-17T19:24:17.403Z,70.47
2018-07-17T19:26:46.074Z,70.18
2018-07-17T19:29:14.801Z,70.98
2018-07-17T19:31:43.474Z,70.66
2018-07-17T19:34:12.160Z,71.49
2018-07-17T19:36:40.816Z,71.23
2018-07-17T19:39:11.417Z,71.08
2018-07-17T19:41:40.074Z,70.73
2018-07-17T19:44:08.718Z,71.06
2018-07-17T19:46:37.453Z,71.81
2018-07-17T19:49:06.126Z,71.35
2018-07-17T19:51:34.798Z,71.85
2018-07-17T19:54:03.459Z,72.25
2018-07-17T19:56:32.119Z,72.99
2018-07-17T19:59:00.731Z,73.22
2018-07-17T20:01:29.423Z,72.88
2018-07-17T20:03:58.089Z,73.66
2018-07-17T20:06:27.450Z,72.93
2018-07-17T20:08:56.184Z,73.34
2018-07-17T20:11:24.817Z,72.66
2018-07-17T20:13:53.423Z,73.19
2018-07-17T20:16:22.134Z,73.99
2018-07-17T20:18:50.866Z,73.63
2018-07-17T20:21:19.563Z,73.70
2018-07-17T20:23:48.242Z,74.27
2018-07-17T20:26:16.893Z,73.83
2018-07-17T20:28:45.777Z,74.47
2018-07-17T20:31:14.892Z,74.72
2018-07-17T20:33:43.617Z,74.45
2018-07-17T20:36:12.298Z,74.75
2018-07-17T20:38:41.000Z,74.87
2018-07-17T20:41:10.482Z,75.00
2018-07-17T20:43:39.506Z,74.78
2018-07-17T20:46:08.240Z,74.82
2018-07-17T20:48:36.946Z,75.71
2018-07-17T20:51:05.800Z,75.98
2018-07-17T20:53:34.454Z,75.83
2018-07-17T20:56:03.064Z,75.75
2018-07-17T20:58:31.781Z,75.98
2018-07-17T21:01:00.501Z,76.11
2018-07-17T21:03:29.428Z,76.25
2018-07-17T21:05:58.129Z,76.08
2018-07-17T21:08:26.812Z,76.47
2018-07-17T21:10:55.517Z,76.42
2018-07-17T21:13:24.144Z,76.78
2018-07-17T21:15:52.799Z,77.32
2018-07-17T21:18:21.419Z,76.97
2018-07-17T21:20:50.082Z,77.30
2018-07-17T21:23:18.756Z,76.91
2018-07-17T21:25:47.372Z,77.01
2018-07-17T21:28:16.280Z,77.48
2018-07-17T21:30:44.974Z,77.85
2018-07-17T21:33:13.675Z,78.60
2018-07-17T21:35:42.444Z,78.09
2018-07-17T21:38:11.132Z,78.24
2018-07-17T21:40:39.788Z,78.19
2018-07-17T21:43:08.420Z,79.15
2018-07-17T21:45:37.132Z,78.82
2018-07-17T21:48:06.195Z,78.53
2018-07-17T21:50:34.847Z,79.39
2018-07-17T21:53:03.549Z,79.62
2018-07-17T21:55:32.176Z,79.18
2018-07-17T21:58:00.874Z,79.86
2018-07-17T22:00:29.694Z,78.92
2018-07-17T22:02:58.406Z,79.57
2018-07-17T22:05:27.105Z,78.52
2018-07-17T22:07:55.741Z,78.17
2018-07-17T22:10:24.437Z,79.10
2018-07-17T22:12:53.189Z,79.19
2018-07-17T22:15:21.858Z,78.34
2018-07-17T22:17:50.510Z,78.78
2018-07-17T22:20:19.176Z,79.20
2018-07-17T22:22:47.871Z,80.05
2018-07-17T22:25:16.591Z,79.71
2018-07-17T22:27:45.338Z,81.09
2018-07-17T22:30:14.068Z,80.92
2018-07-17T22:32:42.717Z,81.42
2018-07-17T22:35:11.412Z,81.31
2018-07-17T22:37:40.077Z,80.82
2018-07-17T22:40:08.799Z,81.07
2018-07-17T22:42:37.484Z,81.34
2018-07-17T22:45:06.760Z,81.72
2018-07-17T22:47:35.460Z,81.89
2018-07-17T22:50:04.183Z,82.15
2018-07-17T22:52:32.879Z,82.08
2018-07-17T22:55:01.584Z,82.33
2018-07-17T22:57:30.191Z,82.02
2018-07-17T22:59:58.844Z,82.13
2018-07-17T23:02:27.537Z,82.34
2018-07-17T23:04:56.217Z,81.98
2018-07-17T23:07:24.843Z,82.12
2018-07-17T23:09:53.552Z,82.83
2018-07-17T23:12:22.220Z,81.81
2018-07-17T23:14:50.901Z,82.56
2018-07-17T23:17:19.844Z,82.90
2018-07-17T23:19:48.546Z,82.61
2018-07-17T23:22:22.964Z,83.00
2018-07-17T23:24:51.632Z,83.18
2018-07-17T23:27:20.364Z,83.62
2018-07-17T23:29:49.077Z,83.14
2018-07-17T23:32:17.744Z,83.71
2018-07-17T23:34:46.404Z,83.38
2018-07-17T23:37:15.125Z,83.63
2018-07-17T23:39:43.855Z,82.97
2018-07-17T23:42:12.515Z,83.83
2018-07-17T23:44:41.198Z,83.82
2018-07-17T23:47:09.875Z,82.98
2018-07-17T23:49:39.227Z,83.54
2018-07-17T23:52:08.413Z,83.11
2018-07-17T23:54:37.121Z,83.12
2018-07-17T23:57:05.895Z,83.25
2018-07-17T23:59:34.593Z,83.79
